sensor_id;sensor_type;location;lat;lon;timestamp;pressure;altitude;pressure_sealevel;temperature;humidity
35918;BME280;22011;59.912;30.300;2023-09-19T00:00:07;101687.94;;;11.86;68.84
35918;BME280;22011;59.912;30.300;2023-09-19T00:02:36;101683.91;;;11.82;68.37
35918;BME280;22011;59.912;30.300;2023-09-19T00:05:05;101680.38;;;11.82;68.23
35918;BME280;22011;59.912;30.300;2023-09-19T00:07:35;101687.94;;;11.86;68.27
35918;BME280;22011;59.912;30.300;2023-09-19T00:10:04;101678.94;;;11.87;68.35
35918;BME280;22011;59.912;30.300;2023-09-19T00:12:36;101677.34;;;11.94;68.60
35918;BME280;22011;59.912;30.300;2023-09-19T00:15:04;101673.28;;;11.90;68.09
35918;BME280;22011;59.912;30.300;2023-09-19T00:17:32;101680.94;;;11.85;68.30
35918;BME280;22011;59.912;30.300;2023-09-19T00:20:01;101678.72;;;11.81;68.20
35918;BME280;22011;59.912;30.300;2023-09-19T00:22:40;101677.88;;;11.80;68.15
35918;BME280;22011;59.912;30.300;2023-09-19T00:25:08;101672.81;;;11.77;67.88
35918;BME280;22011;59.912;30.300;2023-09-19T00:27:39;101678.44;;;11.74;68.05
35918;BME280;22011;59.912;30.300;2023-09-19T00:30:09;101666.97;;;11.64;67.88
35918;BME280;22011;59.912;30.300;2023-09-19T00:32:42;101664.75;;;11.59;68.27
35918;BME280;22011;59.912;30.300;2023-09-19T00:35:10;101657.75;;;11.58;68.55
35918;BME280;22011;59.912;30.300;2023-09-19T00:37:38;101657.34;;;11.53;68.57
35918;BME280;22011;59.912;30.300;2023-09-19T00:40:09;101660.84;;;11.54;68.69
35918;BME280;22011;59.912;30.300;2023-09-19T00:42:40;101662.84;;;11.52;68.58
35918;BME280;22011;59.912;30.300;2023-09-19T00:45:08;101661.31;;;11.49;68.80
35918;BME280;22011;59.912;30.300;2023-09-19T00:47:38;101660.91;;;11.44;68.44
35918;BME280;22011;59.912;30.300;2023-09-19T00:50:08;101660.41;;;11.40;68.44
35918;BME280;22011;59.912;30.300;2023-09-19T00:52:37;101661.84;;;11.35;68.80
35918;BME280;22011;59.912;30.300;2023-09-19T00:55:07;101662.41;;;11.29;69.16
35918;BME280;22011;59.912;30.300;2023-09-19T00:57:35;101660.19;;;11.24;69.11
35918;BME280;22011;59.912;30.300;2023-09-19T01:00:07;101654.56;;;11.27;69.42
35918;BME280;22011;59.912;30.300;2023-09-19T01:02:38;101644.78;;;11.18;68.92
35918;BME280;22011;59.912;30.300;2023-09-19T01:05:06;101639.31;;;11.20;69.16
35918;BME280;22011;59.912;30.300;2023-09-19T01:07:34;101628.47;;;11.21;69.15
35918;BME280;22011;59.912;30.300;2023-09-19T01:10:03;101628.03;;;11.26;69.20
35918;BME280;22011;59.912;30.300;2023-09-19T01:12:43;101618.44;;;11.33;69.23
35918;BME280;22011;59.912;30.300;2023-09-19T01:15:19;101616.78;;;11.32;69.04
35918;BME280;22011;59.912;30.300;2023-09-19T01:17:53;101607.38;;;11.28;69.36
35918;BME280;22011;59.912;30.300;2023-09-19T01:20:35;101601.59;;;11.32;69.46
35918;BME280;22011;59.912;30.300;2023-09-19T01:23:14;101591.91;;;11.31;69.27
35918;BME280;22011;59.912;30.300;2023-09-19T01:26:05;101590.34;;;11.38;69.47
35918;BME280;22011;59.912;30.300;2023-09-19T01:28:53;101587.13;;;11.35;69.22
35918;BME280;22011;59.912;30.300;2023-09-19T01:31:24;101577.78;;;11.21;68.75
35918;BME280;22011;59.912;30.300;2023-09-19T01:33:58;101570.09;;;11.18;68.80
35918;BME280;22011;59.912;30.300;2023-09-19T01:36:30;101570.09;;;11.18;69.25
35918;BME280;22011;59.912;30.300;2023-09-19T01:39:00;101571.00;;;11.09;68.82
35918;BME280;22011;59.912;30.300;2023-09-19T01:41:41;101577.72;;;11.13;69.32
35918;BME280;22011;59.912;30.300;2023-09-19T01:44:17;101565.25;;;11.04;69.30
35918;BME280;22011;59.912;30.300;2023-09-19T01:46:50;101563.72;;;11.01;69.05
35918;BME280;22011;59.912;30.300;2023-09-19T01:49:33;101555.97;;;11.08;69.58
35918;BME280;22011;59.912;30.300;2023-09-19T01:52:09;101552.31;;;11.09;69.42
35918;BME280;22011;59.912;30.300;2023-09-19T01:54:45;101545.31;;;11.08;69.43
35918;BME280;22011;59.912;30.300;2023-09-19T01:57:20;101538.00;;;11.10;68.85
35918;BME280;22011;59.912;30.300;2023-09-19T01:59:54;101536.16;;;11.10;69.63
35918;BME280;22011;59.912;30.300;2023-09-19T02:02:26;101531.69;;;11.11;69.71
35918;BME280;22011;59.912;30.300;2023-09-19T02:04:55;101525.09;;;11.05;69.05
35918;BME280;22011;59.912;30.300;2023-09-19T02:07:26;101519.94;;;11.04;68.61
35918;BME280;22011;59.912;30.300;2023-09-19T02:09:55;101523.59;;;11.03;68.89
35918;BME280;22011;59.912;30.300;2023-09-19T02:12:22;101520.53;;;10.98;68.75
35918;BME280;22011;59.912;30.300;2023-09-19T02:14:50;101510.31;;;10.93;68.87
35918;BME280;22011;59.912;30.300;2023-09-19T02:17:18;101506.09;;;10.91;69.39
35918;BME280;22011;59.912;30.300;2023-09-19T02:19:47;101497.50;;;11.68;67.74
35918;BME280;22011;59.912;30.300;2023-09-19T02:22:15;101485.47;;;11.64;66.70
35918;BME280;22011;59.912;30.300;2023-09-19T02:24:43;101473.13;;;11.45;66.63
35918;BME280;22011;59.912;30.300;2023-09-19T02:27:12;101453.03;;;11.33;67.43
35918;BME280;22011;59.912;30.300;2023-09-19T02:29:42;101459.13;;;11.25;68.19
35918;BME280;22011;59.912;30.300;2023-09-19T02:32:09;101454.25;;;11.21;67.60
35918;BME280;22011;59.912;30.300;2023-09-19T02:34:37;101447.84;;;11.13;68.14
35918;BME280;22011;59.912;30.300;2023-09-19T02:37:07;101451.50;;;11.12;68.73
35918;BME280;22011;59.912;30.300;2023-09-19T02:39:35;101453.66;;;11.09;68.67
35918;BME280;22011;59.912;30.300;2023-09-19T02:42:04;101448.47;;;11.07;68.79
35918;BME280;22011;59.912;30.300;2023-09-19T02:44:33;101438.31;;;11.11;68.43
35918;BME280;22011;59.912;30.300;2023-09-19T02:47:01;101436.66;;;11.10;68.25
35918;BME280;22011;59.912;30.300;2023-09-19T02:49:29;101432.31;;;11.09;68.84
35918;BME280;22011;59.912;30.300;2023-09-19T02:51:57;101428.13;;;11.06;68.84
35918;BME280;22011;59.912;30.300;2023-09-19T02:54:27;101423.09;;;11.03;68.57
35918;BME280;22011;59.912;30.300;2023-09-19T02:56:55;101416.91;;;11.03;68.52
35918;BME280;22011;59.912;30.300;2023-09-19T02:59:23;101409.06;;;11.01;68.82
35918;BME280;22011;59.912;30.300;2023-09-19T03:01:51;101410.06;;;11.00;68.52
35918;BME280;22011;59.912;30.300;2023-09-19T03:04:20;101400.91;;;11.03;68.83
35918;BME280;22011;59.912;30.300;2023-09-19T03:06:49;101396.13;;;11.06;68.81
35918;BME280;22011;59.912;30.300;2023-09-19T03:09:17;101395.66;;;11.11;68.52
35918;BME280;22011;59.912;30.300;2023-09-19T03:11:47;101386.22;;;11.17;69.03
35918;BME280;22011;59.912;30.300;2023-09-19T03:14:16;101384.69;;;11.14;69.08
35918;BME280;22011;59.912;30.300;2023-09-19T03:16:47;101384.31;;;11.09;68.59
35918;BME280;22011;59.912;30.300;2023-09-19T03:19:15;101381.47;;;11.10;68.92
35918;BME280;22011;59.912;30.300;2023-09-19T03:21:44;101381.19;;;11.13;68.57
35918;BME280;22011;59.912;30.300;2023-09-19T03:24:12;101380.34;;;11.13;69.21
35918;BME280;22011;59.912;30.300;2023-09-19T03:26:40;101387.34;;;11.14;68.92
35918;BME280;22011;59.912;30.300;2023-09-19T03:29:09;101373.19;;;10.96;69.39
35918;BME280;22011;59.912;30.300;2023-09-19T03:31:38;101357.94;;;10.88;69.35
35918;BME280;22011;59.912;30.300;2023-09-19T03:34:08;101361.00;;;10.93;70.00
35918;BME280;22011;59.912;30.300;2023-09-19T03:36:36;101349.34;;;10.94;69.92
35918;BME280;22011;59.912;30.300;2023-09-19T03:39:04;101343.16;;;10.94;69.58
35918;BME280;22011;59.912;30.300;2023-09-19T03:41:32;101331.53;;;10.95;69.84
35918;BME280;22011;59.912;30.300;2023-09-19T03:44:02;101334.06;;;11.22;70.06
35918;BME280;22011;59.912;30.300;2023-09-19T03:46:32;101328.59;;;11.06;69.48
35918;BME280;22011;59.912;30.300;2023-09-19T03:49:01;101319.09;;;11.03;68.97
35918;BME280;22011;59.912;30.300;2023-09-19T03:51:29;101320.63;;;11.06;69.28
35918;BME280;22011;59.912;30.300;2023-09-19T03:53:57;101302.63;;;11.08;69.25
35918;BME280;22011;59.912;30.300;2023-09-19T03:56:25;101299.28;;;11.06;68.81
35918;BME280;22011;59.912;30.300;2023-09-19T03:58:52;101297.59;;;11.05;68.81
35918;BME280;22011;59.912;30.300;2023-09-19T04:01:20;101292.13;;;11.06;68.97
35918;BME280;22011;59.912;30.300;2023-09-19T04:03:49;101280.81;;;11.12;69.60
35918;BME280;22011;59.912;30.300;2023-09-19T04:06:18;101271.84;;;11.13;68.94
35918;BME280;22011;59.912;30.300;2023-09-19T04:08:46;101259.84;;;11.18;68.89
35918;BME280;22011;59.912;30.300;2023-09-19T04:11:13;101264.19;;;11.19;69.12
35918;BME280;22011;59.912;30.300;2023-09-19T04:13:41;101257.41;;;11.24;68.75
35918;BME280;22011;59.912;30.300;2023-09-19T04:16:09;101256.72;;;11.22;68.52
35918;BME280;22011;59.912;30.300;2023-09-19T04:18:37;101253.22;;;11.22;68.66
35918;BME280;22011;59.912;30.300;2023-09-19T04:21:08;101250.22;;;11.25;69.31
35918;BME280;22011;59.912;30.300;2023-09-19T04:23:35;101245.91;;;11.24;69.17
35918;BME280;22011;59.912;30.300;2023-09-19T04:26:03;101232.25;;;11.27;69.00
35918;BME280;22011;59.912;30.300;2023-09-19T04:28:31;101218.59;;;11.30;68.98
35918;BME280;22011;59.912;30.300;2023-09-19T04:31:00;101215.59;;;11.33;68.71
35918;BME280;22011;59.912;30.300;2023-09-19T04:33:28;101219.78;;;11.35;68.34
35918;BME280;22011;59.912;30.300;2023-09-19T04:35:55;101204.47;;;11.37;68.50
35918;BME280;22011;59.912;30.300;2023-09-19T04:38:25;101196.81;;;11.42;68.32
35918;BME280;22011;59.912;30.300;2023-09-19T04:40:57;101195.81;;;11.43;68.37
35918;BME280;22011;59.912;30.300;2023-09-19T04:43:25;101185.78;;;11.37;68.30
35918;BME280;22011;59.912;30.300;2023-09-19T04:45:52;101189.75;;;11.33;68.12
35918;BME280;22011;59.912;30.300;2023-09-19T04:48:22;101191.78;;;11.47;68.09
35918;BME280;22011;59.912;30.300;2023-09-19T04:50:51;101185.97;;;11.52;67.25
35918;BME280;22011;59.912;30.300;2023-09-19T04:53:19;101185.47;;;11.48;67.46
35918;BME280;22011;59.912;30.300;2023-09-19T04:55:51;101185.81;;;11.54;68.22
35918;BME280;22011;59.912;30.300;2023-09-19T04:58:21;101185.13;;;11.52;67.48
35918;BME280;22011;59.912;30.300;2023-09-19T05:00:49;101181.47;;;11.53;67.46
35918;BME280;22011;59.912;30.300;2023-09-19T05:03:18;101172.81;;;11.59;67.41
35918;BME280;22011;59.912;30.300;2023-09-19T05:05:46;101176.34;;;11.67;66.83
35918;BME280;22011;59.912;30.300;2023-09-19T05:08:14;101165.88;;;11.74;66.90
35918;BME280;22011;59.912;30.300;2023-09-19T05:10:41;101162.91;;;11.77;66.63
35918;BME280;22011;59.912;30.300;2023-09-19T05:13:10;101164.25;;;11.81;67.10
35918;BME280;22011;59.912;30.300;2023-09-19T05:15:38;101155.88;;;11.76;66.31
35918;BME280;22011;59.912;30.300;2023-09-19T05:18:06;101148.84;;;11.75;66.20
35918;BME280;22011;59.912;30.300;2023-09-19T05:20:34;101146.84;;;11.69;66.81
35918;BME280;22011;59.912;30.300;2023-09-19T05:23:04;101130.81;;;11.69;66.85
35918;BME280;22011;59.912;30.300;2023-09-19T05:25:35;101133.84;;;11.74;66.69
35918;BME280;22011;59.912;30.300;2023-09-19T05:28:05;101130.72;;;11.78;66.90
35918;BME280;22011;59.912;30.300;2023-09-19T05:30:35;101132.22;;;11.89;66.44
35918;BME280;22011;59.912;30.300;2023-09-19T05:33:04;101131.06;;;11.84;66.36
35918;BME280;22011;59.912;30.300;2023-09-19T05:35:32;101125.72;;;11.84;66.46
35918;BME280;22011;59.912;30.300;2023-09-19T05:38:00;101122.72;;;11.87;66.46
35918;BME280;22011;59.912;30.300;2023-09-19T05:40:27;101116.03;;;11.91;66.51
35918;BME280;22011;59.912;30.300;2023-09-19T05:42:55;101113.88;;;11.94;66.83
35918;BME280;22011;59.912;30.300;2023-09-19T05:45:22;101097.03;;;11.94;66.73
35918;BME280;22011;59.912;30.300;2023-09-19T05:47:52;101088.50;;;11.98;66.64
35918;BME280;22011;59.912;30.300;2023-09-19T05:50:21;101091.50;;;11.95;66.48
35918;BME280;22011;59.912;30.300;2023-09-19T05:52:54;101089.84;;;12.02;67.09
35918;BME280;22011;59.912;30.300;2023-09-19T05:55:22;101087.00;;;11.96;66.87
35918;BME280;22011;59.912;30.300;2023-09-19T05:57:51;101076.81;;;11.91;67.24
35918;BME280;22011;59.912;30.300;2023-09-19T06:00:20;101078.34;;;11.94;67.58
35918;BME280;22011;59.912;30.300;2023-09-19T06:02:52;101082.16;;;12.07;67.71
35918;BME280;22011;59.912;30.300;2023-09-19T06:05:21;101076.84;;;11.99;67.25
35918;BME280;22011;59.912;30.300;2023-09-19T06:07:49;101083.16;;;11.98;67.28
35918;BME280;22011;59.912;30.300;2023-09-19T06:10:18;101068.31;;;12.04;67.46
35918;BME280;22011;59.912;30.300;2023-09-19T06:12:46;101077.16;;;12.13;67.71
35918;BME280;22011;59.912;30.300;2023-09-19T06:15:15;101070.66;;;12.15;67.94
35918;BME280;22011;59.912;30.300;2023-09-19T06:17:47;101064.97;;;12.26;67.86
35918;BME280;22011;59.912;30.300;2023-09-19T06:20:16;101058.13;;;12.32;68.20
35918;BME280;22011;59.912;30.300;2023-09-19T06:22:45;101052.09;;;12.38;68.00
35918;BME280;22011;59.912;30.300;2023-09-19T06:25:14;101052.09;;;12.46;67.76
35918;BME280;22011;59.912;30.300;2023-09-19T06:27:45;101044.00;;;12.54;67.90
35918;BME280;22011;59.912;30.300;2023-09-19T06:30:13;101052.19;;;12.61;67.71
35918;BME280;22011;59.912;30.300;2023-09-19T06:32:41;101039.97;;;12.66;67.69
35918;BME280;22011;59.912;30.300;2023-09-19T06:35:10;101021.75;;;12.70;67.95
35918;BME280;22011;59.912;30.300;2023-09-19T06:37:40;101023.56;;;12.77;68.29
35918;BME280;22011;59.912;30.300;2023-09-19T06:40:08;101020.72;;;13.10;67.90
35918;BME280;22011;59.912;30.300;2023-09-19T06:42:40;101014.63;;;12.93;67.53
35918;BME280;22011;59.912;30.300;2023-09-19T06:45:08;101011.09;;;13.01;67.74
35918;BME280;22011;59.912;30.300;2023-09-19T06:47:37;101009.88;;;13.12;67.53
35918;BME280;22011;59.912;30.300;2023-09-19T06:50:06;101003.31;;;13.22;67.44
35918;BME280;22011;59.912;30.300;2023-09-19T06:52:41;101012.59;;;13.34;67.46
35918;BME280;22011;59.912;30.300;2023-09-19T06:55:08;100995.19;;;13.38;67.18
35918;BME280;22011;59.912;30.300;2023-09-19T06:57:39;100988.75;;;13.48;66.45
35918;BME280;22011;59.912;30.300;2023-09-19T07:00:10;100993.38;;;13.54;66.68
35918;BME280;22011;59.912;30.300;2023-09-19T07:02:42;100980.09;;;13.60;66.63
35918;BME280;22011;59.912;30.300;2023-09-19T07:05:09;100981.41;;;13.64;66.75
35918;BME280;22011;59.912;30.300;2023-09-19T07:07:37;100972.47;;;13.72;66.65
35918;BME280;22011;59.912;30.300;2023-09-19T07:10:07;100976.28;;;13.78;66.65
35918;BME280;22011;59.912;30.300;2023-09-19T07:12:37;100972.03;;;13.83;66.77
35918;BME280;22011;59.912;30.300;2023-09-19T07:15:05;100965.31;;;13.87;66.42
35918;BME280;22011;59.912;30.300;2023-09-19T07:17:33;100966.97;;;13.88;66.80
35918;BME280;22011;59.912;30.300;2023-09-19T07:20:01;100969.59;;;13.96;66.76
35918;BME280;22011;59.912;30.300;2023-09-19T07:22:34;100975.50;;;14.06;66.67
35918;BME280;22011;59.912;30.300;2023-09-19T07:25:02;100959.06;;;14.10;66.50
35918;BME280;22011;59.912;30.300;2023-09-19T07:27:32;100959.91;;;14.10;66.84
35918;BME280;22011;59.912;30.300;2023-09-19T07:30:00;100952.22;;;14.07;66.90
35918;BME280;22011;59.912;30.300;2023-09-19T07:32:27;100953.72;;;14.10;67.03
35918;BME280;22011;59.912;30.300;2023-09-19T07:34:55;100956.50;;;14.16;67.26
35918;BME280;22011;59.912;30.300;2023-09-19T07:37:22;100960.66;;;14.33;66.97
35918;BME280;22011;59.912;30.300;2023-09-19T07:39:51;100940.34;;;14.54;66.94
35918;BME280;22011;59.912;30.300;2023-09-19T07:42:19;100933.44;;;14.66;66.30
35918;BME280;22011;59.912;30.300;2023-09-19T07:44:48;100933.53;;;14.72;66.66
35918;BME280;22011;59.912;30.300;2023-09-19T07:47:17;100931.03;;;14.71;66.87
35918;BME280;22011;59.912;30.300;2023-09-19T07:49:46;100922.81;;;14.72;67.04
35918;BME280;22011;59.912;30.300;2023-09-19T07:52:14;100922.47;;;14.97;66.84
35918;BME280;22011;59.912;30.300;2023-09-19T07:54:42;100915.41;;;14.75;67.06
35918;BME280;22011;59.912;30.300;2023-09-19T07:57:11;100914.00;;;14.79;67.06
35918;BME280;22011;59.912;30.300;2023-09-19T07:59:38;100902.53;;;14.85;67.00
35918;BME280;22011;59.912;30.300;2023-09-19T08:02:09;100901.38;;;14.94;67.11
35918;BME280;22011;59.912;30.300;2023-09-19T08:04:42;100898.78;;;15.00;67.13
35918;BME280;22011;59.912;30.300;2023-09-19T08:07:09;100887.84;;;15.02;67.10
35918;BME280;22011;59.912;30.300;2023-09-19T08:09:37;100886.44;;;15.06;67.60
35918;BME280;22011;59.912;30.300;2023-09-19T08:12:05;100888.75;;;15.09;67.47
35918;BME280;22011;59.912;30.300;2023-09-19T08:14:34;100888.22;;;15.20;67.17
35918;BME280;22011;59.912;30.300;2023-09-19T08:17:02;100888.75;;;15.30;67.13
35918;BME280;22011;59.912;30.300;2023-09-19T08:19:32;100888.84;;;15.44;67.13
35918;BME280;22011;59.912;30.300;2023-09-19T08:22:00;100882.31;;;15.53;67.08
35918;BME280;22011;59.912;30.300;2023-09-19T08:24:29;100887.31;;;15.56;67.03
35918;BME280;22011;59.912;30.300;2023-09-19T08:26:59;100881.59;;;15.65;66.86
35918;BME280;22011;59.912;30.300;2023-09-19T08:29:30;100883.69;;;15.70;67.08
35918;BME280;22011;59.912;30.300;2023-09-19T08:31:59;100882.13;;;15.82;66.92
35918;BME280;22011;59.912;30.300;2023-09-19T08:34:26;100874.13;;;15.89;66.48
35918;BME280;22011;59.912;30.300;2023-09-19T08:36:55;100868.00;;;16.01;66.82
35918;BME280;22011;59.912;30.300;2023-09-19T08:39:23;100853.16;;;16.12;66.31
35918;BME280;22011;59.912;30.300;2023-09-19T08:41:57;100853.88;;;16.34;66.72
35918;BME280;22011;59.912;30.300;2023-09-19T08:44:25;100846.06;;;16.39;65.91
35918;BME280;22011;59.912;30.300;2023-09-19T08:46:55;100837.84;;;16.60;65.67
35918;BME280;22011;59.912;30.300;2023-09-19T08:49:27;100840.00;;;16.91;65.01
35918;BME280;22011;59.912;30.300;2023-09-19T08:52:05;100826.34;;;17.32;65.01
35918;BME280;22011;59.912;30.300;2023-09-19T08:54:38;100828.00;;;17.40;64.28
35918;BME280;22011;59.912;30.300;2023-09-19T08:57:07;100815.78;;;17.57;64.36
35918;BME280;22011;59.912;30.300;2023-09-19T08:59:37;100815.13;;;17.75;63.72
35918;BME280;22011;59.912;30.300;2023-09-19T09:02:10;100808.25;;;17.86;63.87
35918;BME280;22011;59.912;30.300;2023-09-19T09:04:40;100795.63;;;17.80;63.82
35918;BME280;22011;59.912;30.300;2023-09-19T09:07:12;100792.47;;;17.89;64.17
35918;BME280;22011;59.912;30.300;2023-09-19T09:09:40;100782.53;;;17.83;63.87
35918;BME280;22011;59.912;30.300;2023-09-19T09:12:10;100770.09;;;17.89;64.07
35918;BME280;22011;59.912;30.300;2023-09-19T09:14:39;100763.75;;;18.15;63.23
35918;BME280;22011;59.912;30.300;2023-09-19T09:17:07;100755.13;;;18.38;62.27
35918;BME280;22011;59.912;30.300;2023-09-19T09:19:35;100751.75;;;18.49;62.11
35918;BME280;22011;59.912;30.300;2023-09-19T09:22:07;100743.63;;;18.55;62.52
35918;BME280;22011;59.912;30.300;2023-09-19T09:24:37;100741.41;;;18.46;62.27
35918;BME280;22011;59.912;30.300;2023-09-19T09:27:07;100744.78;;;18.35;62.85
35918;BME280;22011;59.912;30.300;2023-09-19T09:29:46;100734.34;;;18.45;63.52
35918;BME280;22011;59.912;30.300;2023-09-19T09:32:20;100728.50;;;18.48;63.14
35918;BME280;22011;59.912;30.300;2023-09-19T09:34:52;100722.69;;;18.51;62.81
35918;BME280;22011;59.912;30.300;2023-09-19T09:37:20;100716.63;;;18.55;62.94
35918;BME280;22011;59.912;30.300;2023-09-19T09:39:51;100713.09;;;18.61;63.38
35918;BME280;22011;59.912;30.300;2023-09-19T09:42:30;100709.44;;;18.74;64.07
35918;BME280;22011;59.912;30.300;2023-09-19T09:45:12;100696.38;;;18.96;63.07
35918;BME280;22011;59.912;30.300;2023-09-19T09:47:44;100714.72;;;18.87;63.22
35918;BME280;22011;59.912;30.300;2023-09-19T09:50:27;100697.88;;;18.92;64.06
35918;BME280;22011;59.912;30.300;2023-09-19T09:53:19;100705.63;;;19.07;64.17
35918;BME280;22011;59.912;30.300;2023-09-19T09:56:07;100698.06;;;19.15;64.13
35918;BME280;22011;59.912;30.300;2023-09-19T09:58:37;100702.31;;;19.05;63.50
35918;BME280;22011;59.912;30.300;2023-09-19T10:01:06;100692.34;;;19.05;63.50
35918;BME280;22011;59.912;30.300;2023-09-19T10:03:41;100683.19;;;19.06;63.76
35918;BME280;22011;59.912;30.300;2023-09-19T10:06:12;100682.91;;;19.14;63.97
35918;BME280;22011;59.912;30.300;2023-09-19T10:09:00;100679.41;;;19.32;64.33
35918;BME280;22011;59.912;30.300;2023-09-19T10:11:43;100675.94;;;19.43;64.23
35918;BME280;22011;59.912;30.300;2023-09-19T10:14:12;100667.03;;;19.43;63.50
35918;BME280;22011;59.912;30.300;2023-09-19T10:16:46;100676.50;;;19.52;63.65
35918;BME280;22011;59.912;30.300;2023-09-19T10:19:21;100667.41;;;19.65;64.10
35918;BME280;22011;59.912;30.300;2023-09-19T10:21:53;100653.06;;;19.64;63.89
35918;BME280;22011;59.912;30.300;2023-09-19T10:24:22;100650.97;;;19.66;63.81
35918;BME280;22011;59.912;30.300;2023-09-19T10:26:53;100658.16;;;19.72;63.87
35918;BME280;22011;59.912;30.300;2023-09-19T10:29:21;100646.75;;;19.70;63.91
35918;BME280;22011;59.912;30.300;2023-09-19T10:31:52;100633.94;;;19.77;64.27
35918;BME280;22011;59.912;30.300;2023-09-19T10:34:21;100633.28;;;19.82;64.05
35918;BME280;22011;59.912;30.300;2023-09-19T10:36:51;100627.53;;;19.90;63.80
35918;BME280;22011;59.912;30.300;2023-09-19T10:39:19;100626.38;;;19.98;63.93
35918;BME280;22011;59.912;30.300;2023-09-19T10:41:53;100615.03;;;20.07;64.17
35918;BME280;22011;59.912;30.300;2023-09-19T10:44:23;100612.09;;;20.09;64.24
35918;BME280;22011;59.912;30.300;2023-09-19T10:46:52;100606.31;;;20.05;64.13
35918;BME280;22011;59.912;30.300;2023-09-19T10:49:21;100604.78;;;20.09;64.21
35918;BME280;22011;59.912;30.300;2023-09-19T10:51:52;100600.22;;;20.21;64.31
35918;BME280;22011;59.912;30.300;2023-09-19T10:54:25;100601.19;;;20.27;64.37
35918;BME280;22011;59.912;30.300;2023-09-19T10:56:56;100592.59;;;20.30;64.45
35918;BME280;22011;59.912;30.300;2023-09-19T10:59:25;100584.63;;;20.35;64.03
35918;BME280;22011;59.912;30.300;2023-09-19T11:01:58;100583.66;;;20.30;64.38
35918;BME280;22011;59.912;30.300;2023-09-19T11:04:28;100574.84;;;20.34;64.37
35918;BME280;22011;59.912;30.300;2023-09-19T11:07:01;100574.88;;;20.46;64.34
35918;BME280;22011;59.912;30.300;2023-09-19T11:09:49;100581.47;;;20.73;64.62
35918;BME280;22011;59.912;30.300;2023-09-19T11:12:53;100574.38;;;20.96;64.26
35918;BME280;22011;59.912;30.300;2023-09-19T11:16:03;100570.22;;;21.05;63.91
35918;BME280;22011;59.912;30.300;2023-09-19T11:18:56;100568.09;;;21.18;63.69
35918;BME280;22011;59.912;30.300;2023-09-19T11:21:53;100573.75;;;21.29;63.61
35918;BME280;22011;59.912;30.300;2023-09-19T11:24:28;100574.56;;;21.17;63.20
35918;BME280;22011;59.912;30.300;2023-09-19T11:27:10;100563.25;;;21.32;62.38
35918;BME280;22011;59.912;30.300;2023-09-19T11:29:41;100565.38;;;21.18;62.65
35918;BME280;22011;59.912;30.300;2023-09-19T11:32:08;100565.84;;;21.15;62.77
35918;BME280;22011;59.912;30.300;2023-09-19T11:34:44;100563.38;;;21.14;62.86
35918;BME280;22011;59.912;30.300;2023-09-19T11:40:37;100555.16;;;20.97;63.34
35918;BME280;22011;59.912;30.300;2023-09-19T11:43:33;100550.91;;;21.13;63.84
35918;BME280;22011;59.912;30.300;2023-09-19T11:46:04;100539.25;;;21.01;63.74
35918;BME280;22011;59.912;30.300;2023-09-19T11:48:32;100533.84;;;21.01;63.28
35918;BME280;22011;59.912;30.300;2023-09-19T11:51:11;100543.59;;;21.13;63.59
35918;BME280;22011;59.912;30.300;2023-09-19T11:53:45;100544.91;;;21.11;63.18
35918;BME280;22011;59.912;30.300;2023-09-19T11:56:19;100538.41;;;21.12;63.58
35918;BME280;22011;59.912;30.300;2023-09-19T11:58:49;100537.25;;;21.08;63.30
35918;BME280;22011;59.912;30.300;2023-09-19T12:01:24;100544.06;;;21.10;63.66
35918;BME280;22011;59.912;30.300;2023-09-19T12:03:55;100533.13;;;21.05;63.24
35918;BME280;22011;59.912;30.300;2023-09-19T12:06:24;100524.31;;;20.98;63.39
35918;BME280;22011;59.912;30.300;2023-09-19T12:08:53;100527.25;;;20.97;63.28
35918;BME280;22011;59.912;30.300;2023-09-19T12:11:22;100532.09;;;20.95;63.57
35918;BME280;22011;59.912;30.300;2023-09-19T12:13:50;100521.72;;;21.03;60.51
35918;BME280;22011;59.912;30.300;2023-09-19T12:16:20;100516.16;;;21.10;61.46
35918;BME280;22011;59.912;30.300;2023-09-19T12:18:50;100508.47;;;21.18;61.73
35918;BME280;22011;59.912;30.300;2023-09-19T12:21:24;100513.31;;;21.28;61.80
35918;BME280;22011;59.912;30.300;2023-09-19T12:24:07;100506.81;;;21.29;62.60
35918;BME280;22011;59.912;30.300;2023-09-19T12:26:40;100512.34;;;21.34;60.40
35918;BME280;22011;59.912;30.300;2023-09-19T12:29:13;100509.97;;;21.38;61.65
35918;BME280;22011;59.912;30.300;2023-09-19T12:31:49;100503.34;;;21.45;61.47
35918;BME280;22011;59.912;30.300;2023-09-19T12:34:23;100503.56;;;21.44;62.10
35918;BME280;22011;59.912;30.300;2023-09-19T12:37:09;100499.06;;;21.49;61.82
35918;BME280;22011;59.912;30.300;2023-09-19T12:39:43;100499.50;;;21.30;61.91
35918;BME280;22011;59.912;30.300;2023-09-19T12:42:15;100495.75;;;21.31;61.54
35918;BME280;22011;59.912;30.300;2023-09-19T12:44:44;100494.28;;;21.40;61.26
35918;BME280;22011;59.912;30.300;2023-09-19T12:47:14;100485.84;;;21.53;61.13
35918;BME280;22011;59.912;30.300;2023-09-19T12:50:12;100484.16;;;21.64;61.53
35918;BME280;22011;59.912;30.300;2023-09-19T12:52:42;100472.94;;;21.43;61.48
35918;BME280;22011;59.912;30.300;2023-09-19T12:55:24;100478.88;;;21.57;61.64
35918;BME280;22011;59.912;30.300;2023-09-19T12:58:00;100460.69;;;21.41;62.35
35918;BME280;22011;59.912;30.300;2023-09-19T13:00:33;100458.63;;;21.31;62.37
35918;BME280;22011;59.912;30.300;2023-09-19T13:03:15;100452.00;;;21.39;63.01